Time;durP1;ratioP1;P1;durP2;ratioP2;P2;SDS_P1;SDS_P2;PMS_P1;PMS_P2;Temp;Humidity;BMP_temperature;BMP_pressure;BME280_temperature;BME280_humidity;BME280_pressure;Samples;Min_cycle;Max_cycle;Signal;HPM_P1;HPM_P2
2022/03/11 00:00:08;;;;;;;0.00;0.00;;;;;;;-1.37;56.75;99889.38;4872953;29;20032;-80
2022/03/11 00:03:28;;;;;;;0.00;0.00;;;;;;;-1.40;56.35;99894.94;4870385;29;20484;-81
2022/03/11 00:06:09;;;;;;;1.35;1.35;;;;;;;-1.43;56.90;99901.38;4878402;29;20036;-79
2022/03/11 00:08:35;;;;;;;0.00;0.00;;;;;;;-1.43;57.05;99904.00;4864242;29;20024;-79
2022/03/11 00:15:07;;;;;;;0.43;0.43;;;;;;;-1.45;57.00;99892.88;4847256;29;20045;-81
2022/03/11 00:17:33;;;;;;;0.00;0.00;;;;;;;-1.50;56.53;99880.28;4829144;29;20073;-79
2022/03/11 00:19:59;;;;;;;0.00;0.00;;;;;;;-1.49;56.79;99889.78;4844285;29;20170;-80
2022/03/11 00:22:25;;;;;;;1.07;1.07;;;;;;;-1.49;56.76;99879.28;4826278;29;20132;-79
2022/03/11 00:24:50;;;;;;;0.00;0.00;;;;;;;-1.57;57.37;99879.34;4835923;29;20033;-80
2022/03/11 00:27:16;;;;;;;0.00;0.00;;;;;;;-1.62;57.37;99876.44;4864548;29;20032;-80
2022/03/11 00:29:41;;;;;;;0.00;0.00;;;;;;;-1.60;57.12;99882.31;4867463;29;20033;-82
2022/03/11 00:32:07;;;;;;;0.20;0.20;;;;;;;-1.64;57.57;99875.81;4869670;29;20052;-80
2022/03/11 00:34:34;;;;;;;0.07;0.07;;;;;;;-1.67;57.06;99886.63;4863353;29;20500;-79
2022/03/11 00:37:00;;;;;;;0.10;0.10;;;;;;;-1.70;57.94;99887.00;4863447;29;20025;-81
2022/03/11 00:42:55;;;;;;;0.53;0.40;;;;;;;-1.82;58.51;99874.28;5028412;23;20053;-83
2022/03/11 00:54:21;;;;;;;1.67;1.57;;;;;;;-1.82;58.93;99887.41;4836413;29;20654;-77
2022/03/11 00:56:47;;;;;;;0.00;0.00;;;;;;;-1.86;58.84;99888.72;4840834;29;20121;-77
2022/03/11 00:59:12;;;;;;;0.00;0.00;;;;;;;-1.94;58.81;99888.78;4839391;29;20030;-77
2022/03/11 01:01:38;;;;;;;0.00;0.00;;;;;;;-2.01;58.86;99898.34;4841176;29;20159;-77
2022/03/11 01:04:03;;;;;;;0.83;0.83;;;;;;;-2.07;59.08;99891.16;4854421;29;20052;-77
2022/03/11 01:06:29;;;;;;;0.53;0.53;;;;;;;-2.14;59.75;99883.97;4840190;29;20410;-77
2022/03/11 01:08:54;;;;;;;0.20;0.20;;;;;;;-2.16;59.72;99893.00;4841231;29;20414;-77
2022/03/11 01:11:20;;;;;;;0.00;0.00;;;;;;;-2.23;60.62;99889.41;4840603;29;20034;-77
2022/03/11 01:13:45;;;;;;;0.00;0.00;;;;;;;-2.26;60.85;99891.41;4840589;29;20451;-77
2022/03/11 01:16:11;;;;;;;0.00;0.00;;;;;;;-2.34;61.22;99901.13;4840301;29;20112;-77
2022/03/11 01:18:36;;;;;;;2.67;2.53;;;;;;;-2.39;61.70;99891.16;4840947;29;20049;-77
2022/03/11 01:21:02;;;;;;;0.20;0.20;;;;;;;-2.45;61.76;99882.16;4854374;29;20418;-77
2022/03/11 01:23:28;;;;;;;0.00;0.00;;;;;;;-2.47;62.08;99886.75;4839498;29;20120;-77
2022/03/11 01:25:53;;;;;;;0.00;0.00;;;;;;;-2.52;62.02;99883.00;4855071;29;20034;-78
2022/03/11 01:28:19;;;;;;;0.00;0.00;;;;;;;-2.59;62.14;99888.94;4854838;29;20546;-77
2022/03/11 01:30:44;;;;;;;0.00;0.00;;;;;;;-2.60;62.66;99883.84;4854431;29;20120;-76
2022/03/11 01:33:09;;;;;;;0.70;0.70;;;;;;;-2.63;62.75;99887.63;4839916;29;20474;-76
2022/03/11 01:35:35;;;;;;;0.00;0.00;;;;;;;-2.64;63.03;99880.75;4839094;29;20038;-76
2022/03/11 01:38:00;;;;;;;0.10;0.10;;;;;;;-2.68;63.47;99862.94;4840539;29;20054;-77
2022/03/11 01:40:26;;;;;;;0.63;0.63;;;;;;;-2.68;63.07;99870.81;4839774;29;20049;-76
2022/03/11 01:42:51;;;;;;;0.00;0.00;;;;;;;-2.71;62.50;99879.81;4855661;29;20062;-77
2022/03/11 01:45:17;;;;;;;0.20;0.20;;;;;;;-2.70;62.47;99863.09;4856326;29;20061;-76
2022/03/11 01:47:43;;;;;;;0.03;0.03;;;;;;;-2.68;61.97;99855.88;4840630;29;20030;-76
2022/03/11 01:50:09;;;;;;;0.00;0.00;;;;;;;-2.71;62.19;99877.19;4854302;29;20048;-77
2022/03/11 01:52:37;;;;;;;0.00;0.00;;;;;;;-2.70;61.64;99873.56;4843713;29;20047;-78
2022/03/11 01:55:03;;;;;;;0.75;0.75;;;;;;;-2.74;61.16;99870.47;4858518;29;20093;-76
2022/03/11 01:57:32;;;;;;;0.00;0.00;;;;;;;-2.75;60.60;99876.72;4858498;29;20518;-76
2022/03/11 01:59:57;;;;;;;0.00;0.00;;;;;;;-2.72;59.84;99867.69;4859553;29;20034;-78
2022/03/11 02:02:23;;;;;;;0.00;0.00;;;;;;;-2.72;59.27;99872.94;4857160;29;20038;-78
2022/03/11 02:04:48;;;;;;;0.40;0.40;;;;;;;-2.69;59.52;99877.81;4858879;29;20045;-79
2022/03/11 02:07:36;;;;;;;0.20;0.20;;;;;;;-2.80;59.39;99883.44;4857236;29;20033;-81
2022/03/11 02:10:17;;;;;;;0.00;0.00;;;;;;;-2.81;60.41;99885.22;4856236;29;20050;-79
2022/03/11 02:12:58;;;;;;;0.00;0.00;;;;;;;-2.78;59.27;99894.56;4867575;29;20041;-82
2022/03/11 02:15:24;;;;;;;0.00;0.00;;;;;;;-2.66;59.59;99887.13;4842287;29;20116;-78
2022/03/11 02:17:50;;;;;;;0.00;0.00;;;;;;;-2.74;59.76;99891.41;4852056;29;20084;-78
2022/03/11 02:20:15;;;;;;;0.00;0.00;;;;;;;-2.71;60.29;99892.06;4841476;29;20510;-78
2022/03/11 02:22:44;;;;;;;0.30;0.30;;;;;;;-2.58;60.24;99895.78;4857364;29;20033;-78
2022/03/11 02:25:09;;;;;;;0.00;0.00;;;;;;;-2.59;60.05;99893.34;4856790;29;20057;-78
2022/03/11 02:27:37;;;;;;;0.00;0.00;;;;;;;-2.57;60.20;99899.22;4857390;29;20457;-78
2022/03/11 02:30:21;;;;;;;0.00;0.00;;;;;;;-2.53;59.72;99903.13;4856958;29;20589;-78
2022/03/11 02:32:48;;;;;;;0.33;0.33;;;;;;;-2.54;59.41;99896.25;4824474;29;20030;-78
2022/03/11 02:35:14;;;;;;;0.00;0.00;;;;;;;-2.57;59.30;99889.56;4837916;29;20056;-77
2022/03/11 02:37:40;;;;;;;0.00;0.00;;;;;;;-2.57;58.28;99904.47;4858822;29;20034;-79
2022/03/11 02:40:06;;;;;;;0.00;0.00;;;;;;;-2.66;58.15;99910.69;4855536;29;20062;-78
2022/03/11 02:42:32;;;;;;;0.00;0.00;;;;;;;-2.68;57.87;99910.06;4842242;29;20268;-78
2022/03/11 02:45:03;;;;;;;0.00;0.00;;;;;;;-2.69;57.65;99905.81;4857438;29;20034;-79
2022/03/11 02:47:28;;;;;;;0.00;0.00;;;;;;;-2.77;57.06;99902.22;4854769;29;20060;-78
2022/03/11 02:49:54;;;;;;;0.00;0.00;;;;;;;-2.75;57.77;99909.91;4856946;29;20463;-78
2022/03/11 02:52:21;;;;;;;0.00;0.00;;;;;;;-2.76;57.48;99911.72;4856972;29;20033;-80
2022/03/11 02:54:49;;;;;;;0.00;0.00;;;;;;;-2.74;57.87;99914.97;4856922;29;20475;-79
2022/03/11 03:00:37;;;;;;;0.00;0.00;;;;;;;-2.62;57.37;99918.06;4859516;29;20053;-80
2022/03/11 03:03:04;;;;;;;0.00;0.00;;;;;;;-2.62;56.58;99918.06;4858130;29;20026;-80
2022/03/11 03:05:30;;;;;;;0.00;0.00;;;;;;;-2.77;55.88;99917.94;4856930;29;20033;-78
2022/03/11 03:07:55;;;;;;;0.00;0.00;;;;;;;-2.70;55.56;99917.28;4856607;29;20021;-79
2022/03/11 03:10:21;;;;;;;0.00;0.00;;;;;;;-2.75;56.26;99923.00;4855911;29;20041;-79
2022/03/11 03:12:46;;;;;;;0.00;0.00;;;;;;;-2.81;56.23;99929.72;4857156;29;20120;-78
2022/03/11 03:15:12;;;;;;;0.00;0.00;;;;;;;-2.85;56.33;99930.25;4857183;29;20134;-79
2022/03/11 03:17:37;;;;;;;0.00;0.00;;;;;;;-2.91;56.14;99916.81;4858789;29;20500;-78
2022/03/11 03:20:05;;;;;;;0.10;0.10;;;;;;;-2.87;56.92;99914.69;4857158;29;20124;-79
2022/03/11 03:22:31;;;;;;;0.00;0.00;;;;;;;-2.86;56.35;99912.91;4862008;29;20040;-78
2022/03/11 03:24:57;;;;;;;0.10;0.10;;;;;;;-2.85;55.79;99909.28;4860149;29;20049;-78
2022/03/11 03:27:22;;;;;;;0.00;0.00;;;;;;;-2.90;55.34;99910.59;4859707;29;20094;-79
2022/03/11 03:29:48;;;;;;;0.00;0.00;;;;;;;-2.88;56.23;99920.09;4859647;29;20041;-79
2022/03/11 03:32:13;;;;;;;0.00;0.00;;;;;;;-2.91;55.24;99911.56;4859863;29;20037;-79
2022/03/11 03:34:39;;;;;;;4.23;0.87;;;;;;;-2.96;56.08;99913.06;4860293;29;20124;-78
2022/03/11 03:37:10;;;;;;;0.00;0.00;;;;;;;-2.94;56.67;99922.38;4859822;29;20042;-78
2022/03/11 03:39:38;;;;;;;0.00;0.00;;;;;;;-2.94;56.11;99922.38;4859318;29;20033;-79
2022/03/11 03:45:32;;;;;;;0.00;0.00;;;;;;;-2.86;56.64;99924.16;4861547;29;20285;-80
2022/03/11 03:48:59;;;;;;;0.67;0.67;;;;;;;-2.82;56.44;99925.50;4828363;29;20228;-81
2022/03/11 03:51:41;;;;;;;0.00;0.00;;;;;;;-2.90;56.60;99922.88;4841764;29;20658;-80
2022/03/11 03:54:09;;;;;;;0.77;0.77;;;;;;;-2.85;56.82;99917.16;4839045;29;20128;-78
2022/03/11 03:57:27;;;;;;;0.68;0.68;;;;;;;-2.84;56.49;99927.44;4839454;29;20571;-79
2022/03/11 04:03:46;;;;;;;0.07;0.07;;;;;;;-2.90;55.42;99920.25;4805845;29;20062;-81
2022/03/11 04:06:31;;;;;;;0.00;0.00;;;;;;;-2.91;55.27;99911.56;4807480;29;20073;-79
2022/03/11 04:09:16;;;;;;;0.47;0.47;;;;;;;-3.01;53.14;99924.03;4793329;30;20039;-77
2022/03/11 04:11:42;;;;;;;0.00;0.00;;;;;;;-2.96;53.38;99923.53;4801875;29;20800;-77
2022/03/11 04:14:07;;;;;;;0.67;0.67;;;;;;;-3.06;52.03;99924.53;4803104;29;20030;-78
2022/03/11 04:16:33;;;;;;;0.00;0.00;;;;;;;-3.12;51.33;99938.28;4787041;29;20413;-78
2022/03/11 04:18:59;;;;;;;0.00;0.00;;;;;;;-3.16;51.45;99934.34;4789042;29;20090;-80
2022/03/11 04:21:24;;;;;;;0.10;0.10;;;;;;;-3.16;52.25;99930.91;4802657;29;20523;-80
2022/03/11 04:23:52;;;;;;;2.20;1.40;;;;;;;-3.13;52.67;99934.00;4804137;29;20034;-79
2022/03/11 04:26:18;;;;;;;1.42;1.40;;;;;;;-3.13;52.91;99946.28;4803460;29;20035;-81
2022/03/11 04:28:44;;;;;;;0.00;0.00;;;;;;;-3.11;52.73;99937.28;4787999;29;20037;-78
2022/03/11 04:31:11;;;;;;;0.20;0.20;;;;;;;-3.12;52.78;99951.34;4809384;29;20042;-79
2022/03/11 04:33:38;;;;;;;0.03;0.03;;;;;;;-3.17;52.39;99937.13;4823654;29;20029;-79
2022/03/11 04:36:06;;;;;;;0.00;0.00;;;;;;;-3.15;53.12;99948.25;4823940;29;20066;-79
2022/03/11 04:38:33;;;;;;;0.00;0.00;;;;;;;-3.18;53.11;99941.53;4830320;29;20073;-80
2022/03/11 04:41:48;;;;;;;0.00;0.00;;;;;;;-3.21;52.63;99947.09;4859373;29;20121;-82
2022/03/11 04:44:34;;;;;;;0.07;0.07;;;;;;;-3.15;53.25;99950.84;4860542;29;20086;-80
2022/03/11 04:47:00;;;;;;;5.60;1.23;;;;;;;-3.10;52.72;99948.56;4858319;29;20029;-78
2022/03/11 04:49:26;;;;;;;0.10;0.10;;;;;;;-3.07;52.04;99953.47;4859412;29;20060;-78
2022/03/11 04:51:51;;;;;;;0.00;0.00;;;;;;;-3.06;51.49;99961.16;4859582;29;20505;-79
2022/03/11 04:54:17;;;;;;;0.00;0.00;;;;;;;-2.95;52.33;99960.00;4857417;29;20064;-79
2022/03/11 04:56:53;;;;;;;0.10;0.10;;;;;;;-2.83;52.26;99967.50;4858772;29;20128;-80
2022/03/11 04:59:20;;;;;;;5.90;2.63;;;;;;;-2.67;51.84;99966.69;4859889;29;20120;-80
2022/03/11 05:01:45;;;;;;;1.10;1.10;;;;;;;-2.58;50.91;99966.50;4857993;29;20354;-79
2022/03/11 05:04:11;;;;;;;0.00;0.00;;;;;;;-2.46;51.36;99972.19;4858213;29;20029;-80
2022/03/11 05:06:45;;;;;;;0.00;0.00;;;;;;;-2.39;49.85;99969.75;4859968;29;20033;-81
2022/03/11 05:09:11;;;;;;;0.20;0.20;;;;;;;-2.29;50.31;99969.53;4866717;29;20037;-81
2022/03/11 05:11:37;;;;;;;1.03;1.03;;;;;;;-2.15;49.96;99975.88;4860412;29;20041;-81
2022/03/11 05:14:05;;;;;;;0.20;0.20;;;;;;;-2.10;49.56;99974.38;4858471;29;20497;-80
2022/03/11 05:16:30;;;;;;;0.00;0.00;;;;;;;-1.99;50.06;99980.22;4844565;29;20073;-79
2022/03/11 05:18:56;;;;;;;0.00;0.00;;;;;;;-1.91;49.18;99982.00;4848719;29;20485;-80
2022/03/11 05:21:21;;;;;;;0.00;0.00;;;;;;;-1.88;49.46;99989.53;4855265;29;20033;-80
2022/03/11 05:23:47;;;;;;;0.20;0.20;;;;;;;-1.79;49.61;99993.75;4860338;29;20033;-80
2022/03/11 05:26:24;;;;;;;0.00;0.00;;;;;;;-1.95;47.89;99977.09;4862627;29;20030;-80
2022/03/11 05:28:55;;;;;;;0.00;0.00;;;;;;;-2.19;46.98;99983.25;4858076;29;20033;-76
2022/03/11 05:31:21;;;;;;;0.00;0.00;;;;;;;-2.33;47.21;99976.09;4843016;29;20049;-74
2022/03/11 05:33:51;;;;;;;0.00;0.00;;;;;;;-2.53;47.19;100004.47;4857862;29;20035;-75
2022/03/11 05:36:29;;;;;;;5.03;2.30;;;;;;;-2.50;46.92;99997.09;4861449;29;20037;-82
2022/03/11 05:38:54;;;;;;;0.10;0.10;;;;;;;-2.38;46.62;99988.88;4860670;29;20129;-79
2022/03/11 05:41:20;;;;;;;0.00;0.00;;;;;;;-2.30;45.78;99997.53;4857644;29;20116;-79
2022/03/11 05:43:45;;;;;;;0.10;0.10;;;;;;;-2.12;45.79;100001.75;4857972;29;20029;-79
2022/03/11 05:46:11;;;;;;;0.30;0.30;;;;;;;-1.99;45.13;100003.81;4857903;29;20065;-79
2022/03/11 05:48:37;;;;;;;0.63;0.63;;;;;;;-1.87;44.65;99985.91;4858728;29;20029;-81
2022/03/11 05:51:03;;;;;;;0.30;0.30;;;;;;;-1.79;44.87;99985.88;4860335;29;20045;-79
2022/03/11 05:53:28;;;;;;;0.10;0.10;;;;;;;-1.65;44.24;100006.13;4858773;29;20033;-79
2022/03/11 05:55:54;;;;;;;0.40;0.40;;;;;;;-1.86;43.46;99998.84;4858877;29;20037;-79
2022/03/11 05:58:19;;;;;;;0.00;0.00;;;;;;;-1.98;43.24;99981.88;4842572;29;20405;-79
2022/03/11 06:00:54;;;;;;;0.00;0.00;;;;;;;-1.91;43.40;99993.31;4858253;29;20033;-80
2022/03/11 06:03:20;;;;;;;0.10;0.10;;;;;;;-1.91;43.31;100005.63;4860524;29;20037;-80
2022/03/11 06:05:46;;;;;;;0.73;0.73;;;;;;;-1.94;43.32;99994.47;4843898;29;20048;-81
2022/03/11 06:08:11;;;;;;;0.40;0.40;;;;;;;-1.92;43.86;100003.97;4858026;29;20029;-79
2022/03/11 06:10:47;;;;;;;0.00;0.00;;;;;;;-1.91;44.02;99997.75;4864095;29;20040;-81
2022/03/11 06:13:14;;;;;;;0.00;0.00;;;;;;;-1.79;44.84;100014.72;4859953;29;20061;-80
2022/03/11 06:15:41;;;;;;;0.00;0.00;;;;;;;-1.78;43.75;100024.25;4842079;29;20425;-80
2022/03/11 06:18:09;;;;;;;0.30;0.30;;;;;;;-1.74;44.70;100017.66;4857836;29;20030;-79
2022/03/11 06:20:38;;;;;;;0.20;0.20;;;;;;;-1.73;43.88;100003.56;4847419;29;20117;-79
2022/03/11 06:23:03;;;;;;;;;;;;;;;-1.61;44.50;100012.66;4860502;29;20038;-77
2022/03/11 06:25:29;;;;;;;0.00;0.00;;;;;;;-1.51;43.49;100009.81;4858505;29;20361;-77
2022/03/11 06:27:55;;;;;;;0.00;0.00;;;;;;;-1.39;43.68;100010.25;4858667;29;20026;-77
2022/03/11 06:30:20;;;;;;;0.00;0.00;;;;;;;-1.20;43.87;100027.34;4857698;29;20030;-77
2022/03/11 06:32:48;;;;;;;0.43;0.43;;;;;;;-1.01;44.03;100028.69;4857820;29;20097;-76
2022/03/11 06:35:15;;;;;;;0.00;0.00;;;;;;;-1.01;41.49;100020.00;4860037;29;20029;-76
2022/03/11 06:37:46;;;;;;;0.00;0.00;;;;;;;-1.09;41.28;100033.19;4858798;29;20506;-76
2022/03/11 06:40:12;;;;;;;0.00;0.00;;;;;;;-1.16;40.79;100033.88;4858903;29;20040;-76
2022/03/11 06:42:40;;;;;;;0.00;0.00;;;;;;;-1.11;42.69;100024.66;4857250;29;20038;-76
2022/03/11 06:45:06;;;;;;;0.00;0.00;;;;;;;-1.25;41.96;100029.66;4857388;29;20405;-76
2022/03/11 06:47:33;;;;;;;0.00;0.00;;;;;;;-1.36;42.58;100011.72;4858167;29;20044;-76
2022/03/11 06:50:10;;;;;;;0.00;0.00;;;;;;;-1.37;43.23;100046.81;4860640;29;20091;-79
2022/03/11 06:55:41;;;;;;;0.00;0.00;;;;;;;-1.35;43.56;100032.53;4933301;23;20068;-81
2022/03/11 06:58:38;;;;;;;0.00;0.00;;;;;;;-1.35;43.71;100014.16;4930706;29;20047;-81
2022/03/11 07:01:04;;;;;;;0.00;0.00;;;;;;;-1.31;43.33;100049.56;4909717;29;20024;-75
2022/03/11 07:03:29;;;;;;;0.00;0.00;;;;;;;-1.41;43.14;100035.03;4900751;29;20115;-75
2022/03/11 07:05:54;;;;;;;0.20;0.20;;;;;;;-1.41;43.32;100032.41;4901037;29;20031;-75
2022/03/11 07:08:20;;;;;;;0.00;0.00;;;;;;;-1.41;43.05;100029.78;4917563;29;20652;-76
2022/03/11 07:10:45;;;;;;;0.00;0.00;;;;;;;-1.35;42.02;100036.97;4918209;29;20095;-76
2022/03/11 07:13:11;;;;;;;1.30;1.30;;;;;;;-1.22;43.41;100031.97;4917931;29;20039;-76
2022/03/11 07:15:36;;;;;;;1.23;1.23;;;;;;;-1.17;42.02;100050.63;4917654;29;20098;-78
2022/03/11 07:18:02;;;;;;;0.65;0.65;;;;;;;-1.03;42.51;100021.97;4918391;29;20456;-78
2022/03/11 07:20:27;;;;;;;0.10;0.10;;;;;;;-0.98;42.23;100051.16;4901971;29;20032;-76
2022/03/11 07:22:53;;;;;;;0.00;0.00;;;;;;;-0.94;42.59;100034.06;4901224;29;20032;-76
2022/03/11 07:25:18;;;;;;;0.00;0.00;;;;;;;-1.09;42.31;100048.94;4900957;29;20036;-77
2022/03/11 07:27:45;;;;;;;1.67;1.60;;;;;;;-0.90;43.71;100045.03;4917951;29;20480;-77
2022/03/11 07:30:11;;;;;;;0.30;0.30;;;;;;;-0.80;43.03;100042.97;4918030;29;20032;-75
2022/03/11 07:32:38;;;;;;;0.00;0.00;;;;;;;-0.65;42.96;100046.47;4917527;29;20040;-75
2022/03/11 07:35:04;;;;;;;2.70;2.40;;;;;;;-0.60;41.02;100069.56;4918271;29;20028;-79
2022/03/11 07:37:30;;;;;;;0.00;0.00;;;;;;;-0.71;41.74;100044.56;4901274;29;20040;-78
2022/03/11 07:39:55;;;;;;;0.10;0.10;;;;;;;-0.58;41.92;100053.63;4901458;29;20028;-79
2022/03/11 07:42:21;;;;;;;0.00;0.00;;;;;;;-0.59;41.75;100060.69;4900934;29;20055;-77
2022/03/11 07:44:46;;;;;;;0.00;0.00;;;;;;;-0.54;41.66;100047.03;4900922;29;20119;-79
2022/03/11 07:47:12;;;;;;;0.00;0.00;;;;;;;-0.43;42.75;100035.25;4902026;29;20024;-81
2022/03/11 07:49:37;;;;;;;0.00;0.00;;;;;;;-0.27;41.50;100055.31;4901216;29;20039;-80
2022/03/11 07:52:03;;;;;;;0.00;0.00;;;;;;;-0.21;42.08;100051.97;4903480;29;20508;-79
2022/03/11 07:54:29;;;;;;;0.00;0.00;;;;;;;-0.05;42.03;100058.84;4901698;29;20184;-78
2022/03/11 07:56:55;;;;;;;0.00;0.00;;;;;;;-0.11;41.55;100052.53;4918034;29;20100;-77
2022/03/11 07:59:20;;;;;;;0.20;0.20;;;;;;;-0.05;41.20;100048.34;4918030;29;20040;-77
2022/03/11 08:01:46;;;;;;;0.35;0.35;;;;;;;-0.03;40.30;100054.22;4917609;29;20141;-78
2022/03/11 08:04:13;;;;;;;0.00;0.00;;;;;;;-0.13;40.90;100056.34;4900864;29;20038;-80
2022/03/11 08:06:40;;;;;;;0.10;0.10;;;;;;;-0.12;40.95;100057.94;4918881;29;20035;-78
2022/03/11 08:09:06;;;;;;;0.00;0.00;;;;;;;-0.07;41.44;100052.97;4900811;29;20036;-77
2022/03/11 08:11:31;;;;;;;0.65;0.52;;;;;;;-0.04;41.30;100058.69;4916901;29;20063;-77
2022/03/11 08:13:57;;;;;;;0.00;0.00;;;;;;;0.02;40.69;100040.56;4900935;29;20032;-77
2022/03/11 08:16:22;;;;;;;0.00;0.00;;;;;;;-0.09;40.27;100020.78;4900787;29;20028;-77
2022/03/11 08:18:48;;;;;;;0.10;0.10;;;;;;;-0.08;40.20;100033.75;4917997;29;20032;-76
2022/03/11 08:21:16;;;;;;;0.43;0.43;;;;;;;-0.07;39.88;100056.41;4901561;29;20036;-80
2022/03/11 08:23:42;;;;;;;;;;;;;;;-0.27;40.00;100042.16;4934913;29;20053;-80
2022/03/11 08:26:12;;;;;;;3.53;1.30;;;;;;;-0.27;40.73;100032.47;4902307;29;19911;-79
2022/03/11 08:28:38;;;;;;;0.00;0.00;;;;;;;-0.27;40.43;100048.25;4900662;29;20031;-79
2022/03/11 08:31:03;;;;;;;0.95;0.95;;;;;;;-0.31;40.96;100051.41;4900656;29;20035;-78
2022/03/11 08:33:30;;;;;;;0.25;0.25;;;;;;;-0.19;41.53;100045.53;4917821;29;20032;-80
2022/03/11 08:35:57;;;;;;;0.00;0.00;;;;;;;-0.20;39.00;100043.88;4901098;29;20403;-76
2022/03/11 08:38:22;;;;;;;1.83;1.42;;;;;;;-0.08;40.96;100035.56;4920197;29;20065;-80
2022/03/11 08:40:48;;;;;;;0.00;0.00;;;;;;;-0.10;39.45;100024.41;4901849;29;20032;-78
2022/03/11 08:43:13;;;;;;;0.00;0.00;;;;;;;-0.11;39.34;100044.63;4918083;29;20403;-78
2022/03/11 08:45:39;;;;;;;0.05;0.05;;;;;;;-0.07;39.07;100032.75;4900519;29;20033;-78
2022/03/11 08:48:04;;;;;;;0.75;0.75;;;;;;;0.05;39.69;100041.00;4918579;29;20531;-78
2022/03/11 08:50:32;;;;;;;0.00;0.00;;;;;;;-0.01;37.21;100039.09;4901650;29;20107;-80
2022/03/11 08:52:57;;;;;;;0.00;0.00;;;;;;;0.03;37.30;100043.00;4900655;29;20032;-77
2022/03/11 08:55:23;;;;;;;0.20;0.20;;;;;;;0.06;37.35;100028.66;4918032;29;20044;-78
2022/03/11 08:57:52;;;;;;;1.00;1.00;;;;;;;0.12;38.27;100044.53;4901627;29;20040;-78
2022/03/11 09:00:22;;;;;;;0.00;0.00;;;;;;;-0.06;37.05;100044.91;4901453;29;20416;-77
2022/03/11 09:02:47;;;;;;;1.40;1.30;;;;;;;-0.03;38.90;100041.09;4918244;29;20028;-77
2022/03/11 09:05:15;;;;;;;0.35;0.35;;;;;;;0.02;38.59;100025.56;4901680;29;20043;-77
2022/03/11 09:07:40;;;;;;;0.00;0.00;;;;;;;0.19;38.73;100006.97;4899327;29;20169;-78
2022/03/11 09:10:09;;;;;;;0.32;0.32;;;;;;;0.13;38.20;100011.16;4916383;29;20107;-77
2022/03/11 09:12:35;;;;;;;0.00;0.00;;;;;;;0.17;36.81;100032.63;4899371;29;20412;-76
2022/03/11 09:15:01;;;;;;;0.00;0.00;;;;;;;0.12;37.27;100041.06;4898182;29;20024;-76
2022/03/11 09:17:26;;;;;;;0.45;0.45;;;;;;;0.17;38.31;100032.63;4898766;29;20028;-76
2022/03/11 09:19:51;;;;;;;0.08;0.08;;;;;;;0.09;37.70;100042.25;4915981;29;20039;-76
2022/03/11 09:22:17;;;;;;;0.00;0.00;;;;;;;0.17;40.11;100025.56;4899093;29;20103;-76
2022/03/11 09:24:44;;;;;;;0.00;0.00;;;;;;;0.35;39.68;100029.63;4915597;29;20528;-77
2022/03/11 09:27:11;;;;;;;0.70;0.70;;;;;;;0.53;39.89;100031.88;4917092;29;20028;-80
2022/03/11 09:29:41;;;;;;;0.00;0.00;;;;;;;0.61;38.26;100026.47;4899561;29;20028;-74
2022/03/11 09:32:07;;;;;;;0.00;0.00;;;;;;;0.60;38.08;100033.56;4917120;29;20063;-78
2022/03/11 09:34:37;;;;;;;2.00;1.40;;;;;;;0.62;37.96;100022.84;4916089;29;20578;-76
2022/03/11 09:37:03;;;;;;;0.15;0.15;;;;;;;0.58;37.77;100030.28;4917899;29;20024;-80
2022/03/11 09:39:29;;;;;;;2.90;1.75;;;;;;;0.54;38.08;100022.94;4900546;29;20127;-78
2022/03/11 09:41:54;;;;;;;0.10;0.10;;;;;;;0.63;38.25;100017.41;4916258;29;20063;-75
2022/03/11 09:44:20;;;;;;;0.30;0.30;;;;;;;0.63;37.12;100035.00;4915890;29;20377;-75
2022/03/11 09:46:46;;;;;;;0.65;0.65;;;;;;;0.62;37.33;100022.84;4916901;29;20028;-77
2022/03/11 09:49:13;;;;;;;0.00;0.00;;;;;;;0.58;37.68;100021.59;4917373;29;20071;-78
2022/03/11 09:51:41;;;;;;;0.00;0.00;;;;;;;0.61;37.68;100027.28;4898545;29;20412;-78
2022/03/11 09:54:08;;;;;;;0.00;0.00;;;;;;;0.64;37.91;100016.38;4915878;29;20043;-76
2022/03/11 09:56:35;;;;;;;0.00;0.00;;;;;;;0.67;37.34;100020.44;4899064;29;20449;-75
2022/03/11 09:59:01;;;;;;;0.00;0.00;;;;;;;0.74;37.27;100016.06;4916856;29;20032;-76
2022/03/11 10:01:26;;;;;;;0.00;0.00;;;;;;;0.78;36.83;100024.41;4899279;29;20466;-75
2022/03/11 10:03:51;;;;;;;0.10;0.10;;;;;;;0.81;38.02;100013.50;4916024;29;20028;-76
2022/03/11 10:06:38;;;;;;;0.10;0.10;;;;;;;0.98;37.50;100015.88;4915739;29;20032;-74
2022/03/11 10:09:04;;;;;;;0.00;0.00;;;;;;;1.04;36.72;100001.94;4899045;29;20035;-75
2022/03/11 10:11:30;;;;;;;0.35;0.35;;;;;;;1.03;37.02;99998.50;4915764;29;20029;-78
2022/03/11 10:14:07;;;;;;;0.00;0.00;;;;;;;1.01;37.25;100003.16;4898218;29;20032;-76
2022/03/11 10:16:33;;;;;;;0.00;0.00;;;;;;;1.04;35.88;100000.16;4914900;29;20028;-76
2022/03/11 10:19:02;;;;;;;0.00;0.00;;;;;;;1.07;35.70;100004.22;4915029;29;20091;-76
2022/03/11 10:21:36;;;;;;;0.15;0.15;;;;;;;1.02;36.90;99996.88;4914653;29;20091;-75
2022/03/11 10:24:05;;;;;;;0.43;0.43;;;;;;;1.07;35.82;99983.94;4915458;29;20039;-76
2022/03/11 10:26:35;;;;;;;0.85;0.85;;;;;;;1.20;36.97;99990.34;4917916;29;20028;-77
2022/03/11 10:29:04;;;;;;;0.00;0.00;;;;;;;1.37;35.76;99985.63;4902065;29;20036;-75
2022/03/11 10:31:31;;;;;;;0.10;0.10;;;;;;;1.46;35.51;100000.25;4919120;29;20063;-75
2022/03/11 10:34:32;;;;;;;0.00;0.00;;;;;;;1.41;34.77;99987.66;4919346;29;20036;-76
2022/03/11 10:37:15;;;;;;;0.00;0.00;;;;;;;1.51;35.38;99986.50;4919194;29;20411;-76
2022/03/11 10:39:45;;;;;;;0.00;0.00;;;;;;;1.53;35.46;99998.50;4902905;29;20096;-76
2022/03/11 10:42:17;;;;;;;0.85;0.85;;;;;;;1.50;34.83;99982.25;4922212;29;20076;-77
2022/03/11 10:44:55;;;;;;;0.00;0.00;;;;;;;1.48;34.45;99973.69;4905743;29;20034;-77
2022/03/11 10:47:46;;;;;;;0.10;0.10;;;;;;;1.40;35.30;99975.50;4923102;29;20107;-79
2022/03/11 11:06:12;;;;;;;0.60;0.60;;;;;;;1.86;35.72;99949.59;5375514;23;20119;31
2022/03/11 11:21:47;;;;;;;0.00;0.00;;;;;;;1.90;33.14;99940.25;5164672;23;20044;-79
2022/03/11 11:43:55;;;;;;;2.08;1.10;;;;;;;1.76;34.14;99931.50;5503937;23;20192;-79
2022/03/11 11:59:32;;;;;;;0.30;0.30;;;;;;;2.34;32.91;99917.06;5870373;23;19928;-82
2022/03/11 12:08:51;;;;;;;0.95;0.95;;;;;;;2.31;33.63;99930.66;5147570;23;20138;-79
2022/03/11 12:17:51;;;;;;;0.00;0.00;;;;;;;2.20;33.16;99922.31;5257589;23;20059;31
2022/03/11 12:20:58;;;;;;;0.57;0.57;;;;;;;2.28;34.56;99915.22;4843866;29;20124;-81
2022/03/11 12:24:39;;;;;;;0.10;0.10;;;;;;;2.13;31.24;99908.28;4833420;29;20046;-83
2022/03/11 13:40:12;;;;;;;0.00;0.00;;;;;;;3.21;35.07;99919.72;4885212;29;20056;-81
2022/03/11 13:55:32;;;;;;;0.00;0.00;;;;;;;3.58;34.41;99920.03;4880617;27;20057;-83
2022/03/11 14:01:42;;;;;;;0.00;0.00;;;;;;;3.39;33.70;99907.69;4873840;29;20104;-80
2022/03/11 14:04:22;;;;;;;0.00;0.00;;;;;;;3.44;33.45;99923.75;4844036;29;20056;-80
2022/03/11 14:06:48;;;;;;;0.00;0.00;;;;;;;3.32;33.88;99915.63;4843830;29;20025;-80
2022/03/11 14:09:15;;;;;;;0.00;0.00;;;;;;;3.22;33.71;99915.25;4845608;29;20061;-82
2022/03/11 14:11:41;;;;;;;0.00;0.00;;;;;;;3.14;34.38;99919.72;4860205;29;20029;-80
2022/03/11 14:14:32;;;;;;;0.63;0.63;;;;;;;2.99;33.58;99927.03;4860010;29;20429;-82
2022/03/11 14:17:31;;;;;;;0.00;0.00;;;;;;;2.97;34.65;99927.25;4861639;29;20034;-81
2022/03/11 14:19:57;;;;;;;0.00;0.00;;;;;;;2.91;34.02;99924.63;4861762;29;20497;-78
2022/03/11 14:22:22;;;;;;;0.00;0.00;;;;;;;2.78;33.77;99920.94;4860844;29;20030;-80
2022/03/11 14:24:48;;;;;;;0.00;0.00;;;;;;;2.68;34.62;99921.34;4860481;29;20065;-80
2022/03/11 14:27:15;;;;;;;0.00;0.00;;;;;;;2.65;35.23;99921.78;4858766;29;20042;-79
2022/03/11 14:29:46;;;;;;;0.00;0.00;;;;;;;2.65;35.17;99920.94;4860905;29;20025;-81
2022/03/11 14:32:12;;;;;;;0.00;0.00;;;;;;;2.65;34.75;99921.78;4861072;29;20037;-79
2022/03/11 14:34:37;;;;;;;0.00;0.00;;;;;;;2.67;35.92;99925.03;4861127;29;20029;-78
2022/03/11 14:40:34;;;;;;;0.00;0.00;;;;;;;2.60;33.87;99926.03;4871207;29;20044;-80
2022/03/11 14:43:33;;;;;;;0.00;0.00;;;;;;;2.53;34.12;99926.84;4861796;29;20044;-80
2022/03/11 14:45:58;;;;;;;0.05;0.05;;;;;;;2.50;34.88;99927.25;4859726;29;20111;-79
2022/03/11 14:49:33;;;;;;;0.00;0.00;;;;;;;2.26;35.11;99933.91;4864562;29;20030;-81
2022/03/11 14:55:54;;;;;;;0.10;0.10;;;;;;;1.76;36.13;99915.66;4789715;29;20053;-80
2022/03/11 15:02:05;;;;;;;0.10;0.10;;;;;;;1.48;36.21;99926.25;5034052;24;20064;-81
2022/03/11 15:04:30;;;;;;;0.85;0.85;;;;;;;1.38;36.25;99929.22;4904694;29;20048;-78
2022/03/11 15:06:56;;;;;;;0.10;0.10;;;;;;;1.27;36.13;99926.16;4879941;29;20028;-80
2022/03/11 15:09:21;;;;;;;0.00;0.00;;;;;;;1.22;36.73;99933.00;4879088;29;20035;-79